Flight Track Log - Related Links

Times and Time Zones

All times are in EDT time to prevent confusion due to time zone crossing. See the SWA1319 flight status page for this flight to view local times or setup timezone preferences in your user account.

Time Position Orientation Groundspeed Altitude Reporting Facility
EDT Latitude Longitude Course Direction KTS MPH feet Rate Location/Type
Tue 01:11:16 PM 33.5489 -86.7806 246° West 179 206 1,400  Level Atlanta Center
Tue 01:12:11 PM 33.5289 -86.8347 246° West 222 255 3,600 2,384 Climbing Atlanta Center
Tue 01:12:29 PM 33.5367 -86.8550 295° West 233 268 4,300 3,077 Climbing Atlanta Center
Tue 01:13:29 PM 33.5514 -86.9403 282° West 258 297 7,600 3,050 Climbing Atlanta Center
Tue 01:14:29 PM 33.5806 -87.0236 293° West 270 311 10,400 2,150 Climbing Atlanta Center
Tue 01:15:29 PM 33.6117 -87.1244 290° West 296 341 11,900 2,250 Climbing Atlanta Center
Tue 01:16:29 PM 33.6003 -87.2436 263° West 334 384 14,900 2,477 Climbing Atlanta Center
Tue 01:18:04 PM 33.5850 -87.4297 264° West 362 417 18,300 2,250 Climbing Memphis Center
Tue 01:18:29 PM 33.5783 -87.4947 263° West 368 423 19,400 2,164 Climbing Memphis Center
Tue 01:19:05 PM 33.5733 -87.5597 265° West 364 419 20,500 1,400 Climbing Memphis Center
Tue 01:19:29 PM 33.5661 -87.6100 260° West 415 478 20,800 1,714 Climbing Memphis Center
Tue 01:20:29 PM 33.5564 -87.7397 265° West 409 471 22,900 1,750 Climbing Memphis Center
Tue 01:21:29 PM 33.5444 -87.8647 263° West 398 458 24,300 1,200 Climbing Memphis Center
Tue 01:22:29 PM 33.5306 -88.0022 263° West 404 465 25,300 1,550 Climbing Memphis Center
Tue 01:23:29 PM 33.5183 -88.1372 264° West 410 472 27,400 1,800 Climbing Memphis Center
Tue 01:24:29 PM 33.5100 -88.2594 265° West 410 472 28,900 1,400 Climbing Memphis Center
Tue 01:25:29 PM 33.4956 -88.3919 263° West 410 472 30,200 1,450 Climbing Memphis Center
Tue 01:26:29 PM 33.4619 -88.5219 253° West 410 472 31,800 1,550 Climbing Memphis Center
Tue 01:27:29 PM 33.4325 -88.6472 254° West 404 465 33,300 1,250 Climbing Memphis Center
Tue 01:28:29 PM 33.3986 -88.7697 252° West 399 459 34,300 1,350 Climbing Memphis Center
Tue 01:29:29 PM 33.3708 -88.8872 254° West 392 451 36,000 850 Climbing Memphis Center
Tue 01:30:29 PM 33.3367 -89.0119 252° West 385 443 36,000  Level Memphis Center
Tue 01:31:29 PM 33.3067 -89.1317 253° West 385 443 36,000  Level Memphis Center
Tue 01:32:29 PM 33.2767 -89.2539 254° West 385 443 36,000  Level Memphis Center
Tue 01:33:29 PM 33.2442 -89.3736 252° West 385 443 36,000  Level Memphis Center
Tue 01:34:29 PM 33.2136 -89.4931 253° West 385 443 36,000  Level Memphis Center
Tue 01:35:29 PM 33.1831 -89.6125 253° West 385 443 36,000  Level Memphis Center
Tue 01:36:29 PM 33.1525 -89.7294 253° West 385 443 36,000  Level Memphis Center
Tue 01:37:29 PM 33.1197 -89.8636 254° West 385 443 36,000  Level Memphis Center
Tue 01:38:29 PM 33.0867 -89.9853 252° West 385 443 36,000  Level Memphis Center
Tue 01:39:29 PM 33.0536 -90.1044 252° West 385 443 36,000  Level Memphis Center
Tue 01:40:29 PM 33.0267 -90.2208 255° West 380 437 36,000  Level Memphis Center
Tue 01:41:29 PM 33.0039 -90.3425 257° West 380 437 36,000  Level Memphis Center
Tue 01:42:29 PM 32.9850 -90.4614 259° West 375 432 36,000  Level Memphis Center
Tue 01:43:29 PM 32.9639 -90.5850 259° West 375 432 36,000  Level Memphis Center
Tue 01:44:29 PM 32.9408 -90.7064 257° West 375 432 36,000  Level Memphis Center
Tue 01:45:29 PM 32.9217 -90.8250 259° West 375 432 36,000  Level Memphis Center
Tue 01:46:29 PM 32.9003 -90.9364 257° West 375 432 36,000  Level Memphis Center
Tue 01:47:29 PM 32.8767 -91.0572 257° West 375 432 36,000  Level Memphis Center
Tue 01:48:29 PM 32.8572 -91.1783 259° West 375 432 36,000  Level Memphis Center
Tue 01:50:39 PM 32.8111 -91.4544 259° West 379 436 36,000  Level Fort Worth Center
Tue 01:51:39 PM 32.7897 -91.5747 258° West 379 436 36,000  Level Fort Worth Center
Tue 01:52:39 PM 32.7658 -91.6922 256° West 379 436 36,000  Level Fort Worth Center
Tue 01:53:39 PM 32.7442 -91.8144 258° West 379 436 36,000  Level Fort Worth Center
Tue 01:54:39 PM 32.7203 -91.9369 257° West 379 436 36,000  Level Fort Worth Center
Tue 01:55:39 PM 32.7006 -92.0567 259° West 379 436 36,000  Level Fort Worth Center
Tue 01:56:39 PM 32.6786 -92.1789 258° West 379 436 36,000  Level Fort Worth Center
Tue 01:57:39 PM 32.6558 -92.2889 256° West 379 436 36,000  Level Fort Worth Center
Tue 01:58:39 PM 32.6356 -92.4058 258° West 379 436 36,000  Level Fort Worth Center
Tue 01:59:39 PM 32.6114 -92.5306 257° West 379 436 36,000  Level Fort Worth Center
Tue 02:00:39 PM 32.5889 -92.6500 257° West 379 436 36,000  Level Fort Worth Center
Tue 02:01:39 PM 32.5583 -92.7822 255° West 379 436 36,000  Level Fort Worth Center
Tue 02:02:39 PM 32.5333 -92.9017 256° West 379 436 36,000  Level Fort Worth Center
Tue 02:03:39 PM 32.5106 -93.0261 258° West 379 436 36,000  Level Fort Worth Center
Tue 02:04:39 PM 32.4875 -93.1431 257° West 379 436 36,000  Level Fort Worth Center
Tue 02:05:39 PM 32.4644 -93.2647 257° West 379 436 36,000  Level Fort Worth Center
Tue 02:06:39 PM 32.4411 -93.3814 257° West 379 436 36,000  Level Fort Worth Center
Tue 02:07:39 PM 32.4194 -93.4906 257° West 379 436 36,000  Level Fort Worth Center
Tue 02:08:39 PM 32.4008 -93.6267 261° West 385 443 36,000  Level Fort Worth Center
Tue 02:09:39 PM 32.4019 -93.7400 271° West 391 450 36,000  Level Fort Worth Center
Tue 02:10:39 PM 32.4061 -93.8800 272° West 391 450 36,000  Level Fort Worth Center
Tue 02:11:39 PM 32.4072 -93.9956 271° West 380 437 36,000  Level Fort Worth Center
Tue 02:12:39 PM 32.4108 -94.1333 272° West 389 448 36,000  Level Fort Worth Center
Tue 02:13:39 PM 32.4117 -94.2489 271° West 389 448 36,000  Level Fort Worth Center
Tue 02:14:39 PM 32.4150 -94.3864 272° West 383 441 36,000  Level Fort Worth Center
Tue 02:15:39 PM 32.4175 -94.4972 272° West 383 441 36,000  Level Fort Worth Center
Tue 02:16:39 PM 32.4186 -94.6350 271° West 383 441 36,000  Level Fort Worth Center
Tue 02:17:39 PM 32.4172 -94.7581 269° West 380 437 36,000 -500 Level Fort Worth Center
Tue 02:18:39 PM 32.3989 -94.8842 260° West 391 450 35,000 -950 Descending Fort Worth Center
Tue 02:19:39 PM 32.3842 -94.9928 261° West 391 450 34,100 -950 Descending Fort Worth Center
Tue 02:20:39 PM 32.3658 -95.1186 260° West 386 444 33,100 -1,450 Descending Fort Worth Center
Tue 02:21:39 PM 32.3453 -95.2519 260° West 380 437 31,200 1,450 Descending Fort Worth Center
Tue 02:22:39 PM 32.3200 -95.3753 256° West 385 443 36,000 -2,950 Climbing Fort Worth Center
Tue 02:23:39 PM 32.3014 -95.5086 261° West 398 458 25,300 -6,150 Descending Fort Worth Center
Tue 02:24:39 PM 32.2822 -95.6367 260° West 403 464 23,700 -2,350 Descending Fort Worth Center
Tue 02:25:39 PM 32.3194 -95.7564 290° West 383 441 20,600 -3,000 Descending Fort Worth Center
Tue 02:26:39 PM 32.3667 -95.8689 296° West 378 435 17,700 -3,000 Descending Fort Worth Center
Tue 02:27:39 PM 32.4097 -95.9714 296° West 383 441 14,600 -3,000 Descending Fort Worth Center
Tue 02:28:39 PM 32.4611 -96.0961 296° West 383 441 11,700 -2,050 Descending Fort Worth Center
Tue 02:29:39 PM 32.5017 -96.1892 297° West 368 423 10,500 -950 Descending Fort Worth Center
Tue 02:30:39 PM 32.5444 -96.2872 297° West 324 373 9,800 -750 Descending Fort Worth Center
Tue 02:31:39 PM 32.5806 -96.3631 299° West 290 334 9,000 -850 Descending Fort Worth Center
Tue 02:32:39 PM 32.6314 -96.4514 304° West 291 335 8,100 -950 Descending Fort Worth Center
Tue 02:33:39 PM 32.6758 -96.5272 305° West 305 351 7,100 -1,050 Descending Fort Worth Center
Tue 02:34:39 PM 32.7472 -96.5933 322° Northwest 292 336 6,000 -1,000 Descending Fort Worth Center
Tue 02:35:39 PM 32.8039 -96.6422 324° Northwest 292 336 5,100 -595 Descending Fort Worth Center
Tue 02:36:30 PM 32.8500 -96.6833 323° Northwest 244 281 4,900 -595 Descending Dallas / Fort Worth TRACON
Tue 02:37:30 PM 32.9000 -96.7333 320° Northwest 219 252 4,000 -500 Descending Dallas / Fort Worth TRACON
Tue 02:38:30 PM 32.9500 -96.7833 320° Northwest 216 249 3,900 -400 Descending Dallas / Fort Worth TRACON
Tue 02:39:30 PM 32.9833 -96.8333 308° West 208 239 3,200 -650 Descending Dallas / Fort Worth TRACON
Tue 02:40:30 PM 32.9833 -96.9000 270° West 191 220 2,600 -650 Descending Dallas / Fort Worth TRACON
Tue 02:41:30 PM 32.9333 -96.9333 209° Southwest 180 207 1,900 -450 Descending Dallas / Fort Worth TRACON
Tue 02:42:30 PM 32.9000 -96.9167 157° South 172 198 1,700 -500 Descending Dallas / Fort Worth TRACON
Tue 02:43:30 PM 32.8667 -96.8833 140° Southeast 137 158 900 -800 Descending Dallas / Fort Worth TRACON
Tue 02:45:00 PM 32.8471 -96.8518 146° Southeast  Level Estimated
Tue 02:52:00 PM 32.8471 -96.8518 146° Southeast  Level Estimated

Login

Don't have an account? Register now (free) for customized features, flight alerts, and more!